sensor_id;sensor_type;location;lat;lon;timestamp;temperature;humidity
32706;DHT22;19094;50.972;3.538;2023-06-22T00:00:54;25.60;53.40
32706;DHT22;19094;50.972;3.538;2023-06-22T00:03:22;25.60;53.40
32706;DHT22;19094;50.972;3.538;2023-06-22T00:05:48;25.60;53.40
32706;DHT22;19094;50.972;3.538;2023-06-22T00:08:14;25.60;53.50
32706;DHT22;19094;50.972;3.538;2023-06-22T00:10:41;25.60;53.40
32706;DHT22;19094;50.972;3.538;2023-06-22T00:13:07;25.60;53.50
32706;DHT22;19094;50.972;3.538;2023-06-22T00:15:34;25.60;53.50
32706;DHT22;19094;50.972;3.538;2023-06-22T00:18:00;25.60;53.50
32706;DHT22;19094;50.972;3.538;2023-06-22T00:20:26;25.50;53.50
32706;DHT22;19094;50.972;3.538;2023-06-22T00:22:59;25.50;53.60
32706;DHT22;19094;50.972;3.538;2023-06-22T00:25:25;25.50;53.60
32706;DHT22;19094;50.972;3.538;2023-06-22T00:27:51;25.50;53.50
32706;DHT22;19094;50.972;3.538;2023-06-22T00:30:17;25.50;53.60
32706;DHT22;19094;50.972;3.538;2023-06-22T00:32:44;25.40;53.60
32706;DHT22;19094;50.972;3.538;2023-06-22T00:35:11;25.40;53.60
32706;DHT22;19094;50.972;3.538;2023-06-22T00:37:37;25.40;53.70
32706;DHT22;19094;50.972;3.538;2023-06-22T00:40:04;25.40;53.70
32706;DHT22;19094;50.972;3.538;2023-06-22T00:42:30;25.40;53.70
32706;DHT22;19094;50.972;3.538;2023-06-22T00:44:56;25.40;53.70
32706;DHT22;19094;50.972;3.538;2023-06-22T00:47:22;25.40;53.80
32706;DHT22;19094;50.972;3.538;2023-06-22T00:49:49;25.40;53.80
32706;DHT22;19094;50.972;3.538;2023-06-22T00:52:20;25.40;53.80
32706;DHT22;19094;50.972;3.538;2023-06-22T00:54:51;25.40;53.90
32706;DHT22;19094;50.972;3.538;2023-06-22T00:57:17;25.40;53.90
32706;DHT22;19094;50.972;3.538;2023-06-22T00:59:44;25.40;53.90
32706;DHT22;19094;50.972;3.538;2023-06-22T01:02:11;25.30;53.80
32706;DHT22;19094;50.972;3.538;2023-06-22T01:04:39;25.40;53.90
32706;DHT22;19094;50.972;3.538;2023-06-22T01:09:49;25.30;53.90
32706;DHT22;19094;50.972;3.538;2023-06-22T01:12:18;25.30;53.90
32706;DHT22;19094;50.972;3.538;2023-06-22T01:14:55;25.30;53.90
32706;DHT22;19094;50.972;3.538;2023-06-22T01:17:24;25.30;54.00
32706;DHT22;19094;50.972;3.538;2023-06-22T01:19:54;25.30;54.00
32706;DHT22;19094;50.972;3.538;2023-06-22T01:22:23;25.20;54.00
32706;DHT22;19094;50.972;3.538;2023-06-22T01:25:10;25.20;54.00
32706;DHT22;19094;50.972;3.538;2023-06-22T01:28:53;25.20;54.00
32706;DHT22;19094;50.972;3.538;2023-06-22T01:30:52;25.20;54.10
32706;DHT22;19094;50.972;3.538;2023-06-22T01:33:33;25.20;54.10
32706;DHT22;19094;50.972;3.538;2023-06-22T01:36:01;25.10;54.10
32706;DHT22;19094;50.972;3.538;2023-06-22T01:38:28;25.10;54.10
32706;DHT22;19094;50.972;3.538;2023-06-22T01:40:54;25.10;54.20
32706;DHT22;19094;50.972;3.538;2023-06-22T01:43:21;25.10;54.20
32706;DHT22;19094;50.972;3.538;2023-06-22T01:45:49;25.10;54.20
32706;DHT22;19094;50.972;3.538;2023-06-22T01:48:15;25.10;54.20
32706;DHT22;19094;50.972;3.538;2023-06-22T01:50:41;25.10;54.30
32706;DHT22;19094;50.972;3.538;2023-06-22T01:53:07;25.10;54.30
32706;DHT22;19094;50.972;3.538;2023-06-22T01:55:32;25.10;54.30
32706;DHT22;19094;50.972;3.538;2023-06-22T01:57:58;25.10;54.30
32706;DHT22;19094;50.972;3.538;2023-06-22T02:00:25;25.10;54.40
32706;DHT22;19094;50.972;3.538;2023-06-22T02:03:14;25.10;55.00
32706;DHT22;19094;50.972;3.538;2023-06-22T02:06:06;25.10;54.40
32706;DHT22;19094;50.972;3.538;2023-06-22T02:08:40;25.00;54.30
32706;DHT22;19094;50.972;3.538;2023-06-22T02:11:07;25.00;54.40
32706;DHT22;19094;50.972;3.538;2023-06-22T02:13:34;24.90;54.40
32706;DHT22;19094;50.972;3.538;2023-06-22T02:16:00;24.90;54.50
32706;DHT22;19094;50.972;3.538;2023-06-22T02:18:26;24.90;54.60
32706;DHT22;19094;50.972;3.538;2023-06-22T02:20:52;24.90;54.50
32706;DHT22;19094;50.972;3.538;2023-06-22T02:23:18;24.90;54.40
32706;DHT22;19094;50.972;3.538;2023-06-22T02:25:43;24.90;54.40
32706;DHT22;19094;50.972;3.538;2023-06-22T02:28:09;24.90;54.40
32706;DHT22;19094;50.972;3.538;2023-06-22T02:30:35;24.90;54.40
32706;DHT22;19094;50.972;3.538;2023-06-22T02:33:01;24.80;54.40
32706;DHT22;19094;50.972;3.538;2023-06-22T02:35:28;24.80;54.50
32706;DHT22;19094;50.972;3.538;2023-06-22T02:37:58;24.80;54.60
32706;DHT22;19094;50.972;3.538;2023-06-22T02:40:25;24.80;54.60
32706;DHT22;19094;50.972;3.538;2023-06-22T02:42:51;24.80;54.60
32706;DHT22;19094;50.972;3.538;2023-06-22T02:45:16;24.80;54.60
32706;DHT22;19094;50.972;3.538;2023-06-22T02:47:42;24.80;54.70
32706;DHT22;19094;50.972;3.538;2023-06-22T02:50:08;24.80;54.80
32706;DHT22;19094;50.972;3.538;2023-06-22T02:52:33;24.70;54.80
32706;DHT22;19094;50.972;3.538;2023-06-22T02:54:59;24.70;54.80
32706;DHT22;19094;50.972;3.538;2023-06-22T02:57:25;24.70;54.90
32706;DHT22;19094;50.972;3.538;2023-06-22T02:59:51;24.70;54.90
32706;DHT22;19094;50.972;3.538;2023-06-22T03:02:16;24.60;54.80
32706;DHT22;19094;50.972;3.538;2023-06-22T03:04:43;24.70;54.90
32706;DHT22;19094;50.972;3.538;2023-06-22T03:07:08;24.60;54.90
32706;DHT22;19094;50.972;3.538;2023-06-22T03:09:34;24.60;54.80
32706;DHT22;19094;50.972;3.538;2023-06-22T03:12:00;24.60;54.80
32706;DHT22;19094;50.972;3.538;2023-06-22T03:14:27;24.60;55.00
32706;DHT22;19094;50.972;3.538;2023-06-22T03:16:53;24.60;55.00
32706;DHT22;19094;50.972;3.538;2023-06-22T03:19:18;24.60;54.90
32706;DHT22;19094;50.972;3.538;2023-06-22T03:21:46;24.50;54.90
32706;DHT22;19094;50.972;3.538;2023-06-22T03:24:12;24.60;55.00
32706;DHT22;19094;50.972;3.538;2023-06-22T03:26:38;24.50;55.00
32706;DHT22;19094;50.972;3.538;2023-06-22T03:29:03;24.50;54.90
32706;DHT22;19094;50.972;3.538;2023-06-22T03:31:29;24.50;54.90
32706;DHT22;19094;50.972;3.538;2023-06-22T03:33:54;24.50;55.00
32706;DHT22;19094;50.972;3.538;2023-06-22T03:36:21;24.50;55.00
32706;DHT22;19094;50.972;3.538;2023-06-22T03:38:48;24.50;54.90
32706;DHT22;19094;50.972;3.538;2023-06-22T03:41:14;24.50;55.00
32706;DHT22;19094;50.972;3.538;2023-06-22T03:43:40;24.50;55.00
32706;DHT22;19094;50.972;3.538;2023-06-22T03:46:06;24.40;55.00
32706;DHT22;19094;50.972;3.538;2023-06-22T03:48:31;24.40;55.10
32706;DHT22;19094;50.972;3.538;2023-06-22T03:50:59;24.40;55.30
32706;DHT22;19094;50.972;3.538;2023-06-22T03:53:25;24.40;55.20
32706;DHT22;19094;50.972;3.538;2023-06-22T03:55:51;24.40;55.30
32706;DHT22;19094;50.972;3.538;2023-06-22T03:58:20;24.40;55.30
32706;DHT22;19094;50.972;3.538;2023-06-22T04:00:50;24.30;55.20
32706;DHT22;19094;50.972;3.538;2023-06-22T04:03:16;24.30;55.40
32706;DHT22;19094;50.972;3.538;2023-06-22T04:05:44;24.30;55.20
32706;DHT22;19094;50.972;3.538;2023-06-22T04:08:10;24.30;55.30
32706;DHT22;19094;50.972;3.538;2023-06-22T04:10:36;24.30;55.20
32706;DHT22;19094;50.972;3.538;2023-06-22T04:13:02;24.30;55.30
32706;DHT22;19094;50.972;3.538;2023-06-22T04:15:27;24.30;55.30
32706;DHT22;19094;50.972;3.538;2023-06-22T04:17:54;24.30;55.20
32706;DHT22;19094;50.972;3.538;2023-06-22T04:20:20;24.30;55.30
32706;DHT22;19094;50.972;3.538;2023-06-22T04:22:45;24.20;55.30
32706;DHT22;19094;50.972;3.538;2023-06-22T04:25:11;24.30;55.40
32706;DHT22;19094;50.972;3.538;2023-06-22T04:27:37;24.20;55.40
32706;DHT22;19094;50.972;3.538;2023-06-22T04:30:06;24.20;55.30
32706;DHT22;19094;50.972;3.538;2023-06-22T04:32:33;24.20;56.00
32706;DHT22;19094;50.972;3.538;2023-06-22T04:35:02;24.20;55.40
32706;DHT22;19094;50.972;3.538;2023-06-22T04:37:27;24.20;55.40
32706;DHT22;19094;50.972;3.538;2023-06-22T04:39:53;24.20;55.50
32706;DHT22;19094;50.972;3.538;2023-06-22T04:42:19;24.20;55.60
32706;DHT22;19094;50.972;3.538;2023-06-22T04:44:44;24.20;55.60
32706;DHT22;19094;50.972;3.538;2023-06-22T04:47:10;24.20;55.70
32706;DHT22;19094;50.972;3.538;2023-06-22T04:49:36;24.20;55.70
32706;DHT22;19094;50.972;3.538;2023-06-22T04:52:12;24.20;55.70
32706;DHT22;19094;50.972;3.538;2023-06-22T04:54:40;24.30;55.70
32706;DHT22;19094;50.972;3.538;2023-06-22T04:57:13;24.30;55.80
32706;DHT22;19094;50.972;3.538;2023-06-22T04:59:40;24.30;55.90
32706;DHT22;19094;50.972;3.538;2023-06-22T05:02:07;24.30;55.80
32706;DHT22;19094;50.972;3.538;2023-06-22T05:04:34;24.30;55.90
32706;DHT22;19094;50.972;3.538;2023-06-22T05:07:02;24.20;55.90
32706;DHT22;19094;50.972;3.538;2023-06-22T05:09:28;24.30;55.90
32706;DHT22;19094;50.972;3.538;2023-06-22T05:11:53;24.30;55.90
32706;DHT22;19094;50.972;3.538;2023-06-22T05:14:19;24.30;55.90
32706;DHT22;19094;50.972;3.538;2023-06-22T05:16:46;24.30;56.00
32706;DHT22;19094;50.972;3.538;2023-06-22T05:19:12;24.30;56.00
32706;DHT22;19094;50.972;3.538;2023-06-22T05:21:37;24.40;56.10
32706;DHT22;19094;50.972;3.538;2023-06-22T05:24:04;24.30;56.00
32706;DHT22;19094;50.972;3.538;2023-06-22T05:26:32;24.40;56.10
32706;DHT22;19094;50.972;3.538;2023-06-22T05:29:00;24.40;56.10
32706;DHT22;19094;50.972;3.538;2023-06-22T05:31:27;24.30;56.10
32706;DHT22;19094;50.972;3.538;2023-06-22T05:33:54;24.40;56.20
32706;DHT22;19094;50.972;3.538;2023-06-22T05:36:20;24.40;56.20
32706;DHT22;19094;50.972;3.538;2023-06-22T05:38:47;24.40;56.20
32706;DHT22;19094;50.972;3.538;2023-06-22T05:41:13;24.40;56.20
32706;DHT22;19094;50.972;3.538;2023-06-22T05:43:39;24.40;56.30
32706;DHT22;19094;50.972;3.538;2023-06-22T05:46:05;24.40;56.40
32706;DHT22;19094;50.972;3.538;2023-06-22T05:48:31;24.40;56.30
32706;DHT22;19094;50.972;3.538;2023-06-22T05:50:57;24.40;56.30
32706;DHT22;19094;50.972;3.538;2023-06-22T05:53:23;24.50;56.40
32706;DHT22;19094;50.972;3.538;2023-06-22T05:55:49;24.40;56.40
32706;DHT22;19094;50.972;3.538;2023-06-22T05:58:14;24.50;56.50
32706;DHT22;19094;50.972;3.538;2023-06-22T06:00:40;24.50;56.50
32706;DHT22;19094;50.972;3.538;2023-06-22T06:03:07;24.50;56.60
32706;DHT22;19094;50.972;3.538;2023-06-22T06:05:34;24.50;56.50
32706;DHT22;19094;50.972;3.538;2023-06-22T06:08:01;24.50;56.50
32706;DHT22;19094;50.972;3.538;2023-06-22T06:10:27;24.50;56.50
32706;DHT22;19094;50.972;3.538;2023-06-22T06:12:55;24.50;56.40
32706;DHT22;19094;50.972;3.538;2023-06-22T06:15:20;24.50;56.60
32706;DHT22;19094;50.972;3.538;2023-06-22T06:17:55;24.50;56.70
32706;DHT22;19094;50.972;3.538;2023-06-22T06:20:22;24.50;56.90
32706;DHT22;19094;50.972;3.538;2023-06-22T06:22:48;24.50;56.50
32706;DHT22;19094;50.972;3.538;2023-06-22T06:25:14;24.60;56.50
32706;DHT22;19094;50.972;3.538;2023-06-22T06:27:47;24.60;56.70
32706;DHT22;19094;50.972;3.538;2023-06-22T06:30:14;24.60;56.60
32706;DHT22;19094;50.972;3.538;2023-06-22T06:32:41;24.60;56.70
32706;DHT22;19094;50.972;3.538;2023-06-22T06:35:08;24.50;56.60
32706;DHT22;19094;50.972;3.538;2023-06-22T06:37:37;24.60;56.60
32706;DHT22;19094;50.972;3.538;2023-06-22T06:40:07;24.60;56.70
32706;DHT22;19094;50.972;3.538;2023-06-22T06:42:45;24.60;56.60
32706;DHT22;19094;50.972;3.538;2023-06-22T06:45:18;24.60;56.50
32706;DHT22;19094;50.972;3.538;2023-06-22T06:47:45;24.60;56.70
32706;DHT22;19094;50.972;3.538;2023-06-22T06:50:11;24.60;56.00
32706;DHT22;19094;50.972;3.538;2023-06-22T06:52:37;24.60;56.00
32706;DHT22;19094;50.972;3.538;2023-06-22T06:55:04;24.70;55.90
32706;DHT22;19094;50.972;3.538;2023-06-22T06:57:38;24.70;55.90
32706;DHT22;19094;50.972;3.538;2023-06-22T07:00:06;24.70;55.70
32706;DHT22;19094;50.972;3.538;2023-06-22T07:02:35;24.70;55.80
32706;DHT22;19094;50.972;3.538;2023-06-22T07:05:01;24.70;55.80
32706;DHT22;19094;50.972;3.538;2023-06-22T07:07:30;24.80;55.70
32706;DHT22;19094;50.972;3.538;2023-06-22T07:09:55;24.80;55.40
32706;DHT22;19094;50.972;3.538;2023-06-22T07:12:21;24.80;55.40
32706;DHT22;19094;50.972;3.538;2023-06-22T07:14:47;24.90;55.30
32706;DHT22;19094;50.972;3.538;2023-06-22T07:17:13;24.90;55.30
32706;DHT22;19094;50.972;3.538;2023-06-22T07:19:38;24.90;55.20
32706;DHT22;19094;50.972;3.538;2023-06-22T07:22:04;24.90;55.30
32706;DHT22;19094;50.972;3.538;2023-06-22T07:24:30;25.00;55.20
32706;DHT22;19094;50.972;3.538;2023-06-22T07:26:56;25.00;55.60
32706;DHT22;19094;50.972;3.538;2023-06-22T07:29:23;25.00;55.50
32706;DHT22;19094;50.972;3.538;2023-06-22T07:31:50;25.00;55.40
32706;DHT22;19094;50.972;3.538;2023-06-22T07:34:17;25.00;55.30
32706;DHT22;19094;50.972;3.538;2023-06-22T07:36:43;25.00;55.10
32706;DHT22;19094;50.972;3.538;2023-06-22T07:39:09;25.10;55.10
32706;DHT22;19094;50.972;3.538;2023-06-22T07:41:35;25.10;55.10
32706;DHT22;19094;50.972;3.538;2023-06-22T07:44:02;25.10;55.10
32706;DHT22;19094;50.972;3.538;2023-06-22T07:46:29;25.10;55.10
32706;DHT22;19094;50.972;3.538;2023-06-22T07:48:56;25.10;55.10
32706;DHT22;19094;50.972;3.538;2023-06-22T07:51:22;25.10;55.10
32706;DHT22;19094;50.972;3.538;2023-06-22T07:53:47;25.20;55.00
32706;DHT22;19094;50.972;3.538;2023-06-22T07:56:14;25.20;55.10
32706;DHT22;19094;50.972;3.538;2023-06-22T07:58:44;25.10;55.30
32706;DHT22;19094;50.972;3.538;2023-06-22T08:01:11;25.10;55.20
32706;DHT22;19094;50.972;3.538;2023-06-22T08:03:37;25.20;55.30
32706;DHT22;19094;50.972;3.538;2023-06-22T08:06:03;25.20;55.20
32706;DHT22;19094;50.972;3.538;2023-06-22T08:08:29;25.20;55.10
32706;DHT22;19094;50.972;3.538;2023-06-22T08:10:54;25.20;55.10
32706;DHT22;19094;50.972;3.538;2023-06-22T08:13:20;25.20;55.00
32706;DHT22;19094;50.972;3.538;2023-06-22T08:15:46;25.00;55.80
32706;DHT22;19094;50.972;3.538;2023-06-22T08:18:11;25.10;56.20
32706;DHT22;19094;50.972;3.538;2023-06-22T08:20:37;25.10;56.00
32706;DHT22;19094;50.972;3.538;2023-06-22T08:23:03;25.10;55.90
32706;DHT22;19094;50.972;3.538;2023-06-22T08:25:35;25.20;55.90
32706;DHT22;19094;50.972;3.538;2023-06-22T08:28:01;25.20;55.80
32706;DHT22;19094;50.972;3.538;2023-06-22T08:30:27;25.20;55.80
32706;DHT22;19094;50.972;3.538;2023-06-22T08:32:53;25.20;55.80
32706;DHT22;19094;50.972;3.538;2023-06-22T08:35:21;25.20;55.70
32706;DHT22;19094;50.972;3.538;2023-06-22T08:37:47;25.20;55.70
32706;DHT22;19094;50.972;3.538;2023-06-22T08:40:19;25.20;55.70
32706;DHT22;19094;50.972;3.538;2023-06-22T08:42:46;25.20;55.60
32706;DHT22;19094;50.972;3.538;2023-06-22T08:45:12;25.20;55.70
32706;DHT22;19094;50.972;3.538;2023-06-22T08:47:39;25.20;55.60
32706;DHT22;19094;50.972;3.538;2023-06-22T08:50:07;25.20;55.60
32706;DHT22;19094;50.972;3.538;2023-06-22T08:52:34;25.20;55.60
32706;DHT22;19094;50.972;3.538;2023-06-22T08:55:00;25.20;55.60
32706;DHT22;19094;50.972;3.538;2023-06-22T08:57:25;25.20;55.70
32706;DHT22;19094;50.972;3.538;2023-06-22T08:59:51;25.20;55.70
32706;DHT22;19094;50.972;3.538;2023-06-22T09:02:18;25.20;55.70
32706;DHT22;19094;50.972;3.538;2023-06-22T09:04:46;25.20;55.60
32706;DHT22;19094;50.972;3.538;2023-06-22T09:07:11;25.20;55.60
32706;DHT22;19094;50.972;3.538;2023-06-22T09:09:38;25.20;55.70
32706;DHT22;19094;50.972;3.538;2023-06-22T09:12:04;25.10;55.90
32706;DHT22;19094;50.972;3.538;2023-06-22T09:14:30;25.10;56.20
32706;DHT22;19094;50.972;3.538;2023-06-22T09:16:56;25.10;55.90
32706;DHT22;19094;50.972;3.538;2023-06-22T09:19:21;25.10;55.90
32706;DHT22;19094;50.972;3.538;2023-06-22T09:21:47;25.10;55.90
32706;DHT22;19094;50.972;3.538;2023-06-22T09:24:13;25.10;55.90
32706;DHT22;19094;50.972;3.538;2023-06-22T09:26:39;25.10;55.90
32706;DHT22;19094;50.972;3.538;2023-06-22T09:29:05;25.10;55.80
32706;DHT22;19094;50.972;3.538;2023-06-22T09:31:31;25.10;55.90
32706;DHT22;19094;50.972;3.538;2023-06-22T09:33:57;25.10;55.90
32706;DHT22;19094;50.972;3.538;2023-06-22T09:36:23;25.10;56.00
32706;DHT22;19094;50.972;3.538;2023-06-22T09:38:49;25.10;55.90
32706;DHT22;19094;50.972;3.538;2023-06-22T09:41:21;25.10;55.90
32706;DHT22;19094;50.972;3.538;2023-06-22T09:43:47;25.10;56.00
32706;DHT22;19094;50.972;3.538;2023-06-22T09:46:15;25.10;56.00
32706;DHT22;19094;50.972;3.538;2023-06-22T09:48:41;25.00;56.10
32706;DHT22;19094;50.972;3.538;2023-06-22T09:51:06;25.10;56.10
32706;DHT22;19094;50.972;3.538;2023-06-22T09:53:32;25.10;56.00
32706;DHT22;19094;50.972;3.538;2023-06-22T09:56:00;25.10;56.10
32706;DHT22;19094;50.972;3.538;2023-06-22T09:58:26;25.10;56.10
32706;DHT22;19094;50.972;3.538;2023-06-22T10:00:51;25.10;56.30
32706;DHT22;19094;50.972;3.538;2023-06-22T10:03:18;25.10;56.20
32706;DHT22;19094;50.972;3.538;2023-06-22T10:05:44;25.10;56.40
32706;DHT22;19094;50.972;3.538;2023-06-22T10:08:09;25.10;56.10
32706;DHT22;19094;50.972;3.538;2023-06-22T10:10:35;25.10;56.10
32706;DHT22;19094;50.972;3.538;2023-06-22T10:13:10;25.10;56.20
32706;DHT22;19094;50.972;3.538;2023-06-22T10:15:36;25.00;56.10
32706;DHT22;19094;50.972;3.538;2023-06-22T10:18:02;25.10;56.30
32706;DHT22;19094;50.972;3.538;2023-06-22T10:20:27;25.00;56.20
32706;DHT22;19094;50.972;3.538;2023-06-22T10:22:53;25.10;56.20
32706;DHT22;19094;50.972;3.538;2023-06-22T10:25:19;25.00;56.20
32706;DHT22;19094;50.972;3.538;2023-06-22T10:27:45;24.90;56.80
32706;DHT22;19094;50.972;3.538;2023-06-22T10:30:11;25.00;56.50
32706;DHT22;19094;50.972;3.538;2023-06-22T10:32:38;25.00;56.50
32706;DHT22;19094;50.972;3.538;2023-06-22T10:35:05;25.00;56.70
32706;DHT22;19094;50.972;3.538;2023-06-22T10:37:31;25.00;56.60
32706;DHT22;19094;50.972;3.538;2023-06-22T10:39:56;24.80;57.50
32706;DHT22;19094;50.972;3.538;2023-06-22T10:42:22;24.90;58.10
32706;DHT22;19094;50.972;3.538;2023-06-22T10:44:48;25.00;57.90
32706;DHT22;19094;50.972;3.538;2023-06-22T10:47:13;25.00;57.80
32706;DHT22;19094;50.972;3.538;2023-06-22T10:49:39;25.00;57.40
32706;DHT22;19094;50.972;3.538;2023-06-22T10:52:08;25.00;57.20
32706;DHT22;19094;50.972;3.538;2023-06-22T10:54:35;25.00;57.10
32706;DHT22;19094;50.972;3.538;2023-06-22T10:57:01;25.00;57.10
32706;DHT22;19094;50.972;3.538;2023-06-22T10:59:27;25.00;57.80
32706;DHT22;19094;50.972;3.538;2023-06-22T11:01:55;25.00;57.50
32706;DHT22;19094;50.972;3.538;2023-06-22T11:04:20;25.00;57.60
32706;DHT22;19094;50.972;3.538;2023-06-22T11:06:47;25.00;57.60
32706;DHT22;19094;50.972;3.538;2023-06-22T11:09:13;25.00;57.30
32706;DHT22;19094;50.972;3.538;2023-06-22T11:11:44;25.10;57.90
32706;DHT22;19094;50.972;3.538;2023-06-22T11:14:10;25.00;57.20
32706;DHT22;19094;50.972;3.538;2023-06-22T11:16:35;25.00;57.30
32706;DHT22;19094;50.972;3.538;2023-06-22T11:19:01;25.00;57.30
32706;DHT22;19094;50.972;3.538;2023-06-22T11:21:26;25.00;57.40
32706;DHT22;19094;50.972;3.538;2023-06-22T11:23:52;25.00;57.20
32706;DHT22;19094;50.972;3.538;2023-06-22T11:26:18;25.00;57.20
32706;DHT22;19094;50.972;3.538;2023-06-22T11:28:43;25.00;57.20
32706;DHT22;19094;50.972;3.538;2023-06-22T11:31:09;25.00;57.20
32706;DHT22;19094;50.972;3.538;2023-06-22T11:33:35;25.00;57.20
32706;DHT22;19094;50.972;3.538;2023-06-22T11:36:00;25.00;57.20
32706;DHT22;19094;50.972;3.538;2023-06-22T11:38:26;25.00;57.30
32706;DHT22;19094;50.972;3.538;2023-06-22T11:40:52;25.00;57.00
32706;DHT22;19094;50.972;3.538;2023-06-22T11:43:17;25.00;57.00
32706;DHT22;19094;50.972;3.538;2023-06-22T11:45:43;25.00;57.00
32706;DHT22;19094;50.972;3.538;2023-06-22T11:48:09;25.00;57.00
32706;DHT22;19094;50.972;3.538;2023-06-22T11:50:34;25.00;57.00
32706;DHT22;19094;50.972;3.538;2023-06-22T11:53:02;25.00;57.20
32706;DHT22;19094;50.972;3.538;2023-06-22T11:55:28;24.90;57.60
32706;DHT22;19094;50.972;3.538;2023-06-22T11:57:57;24.90;57.70
32706;DHT22;19094;50.972;3.538;2023-06-22T12:00:25;24.90;57.50
32706;DHT22;19094;50.972;3.538;2023-06-22T12:02:51;24.90;57.50
32706;DHT22;19094;50.972;3.538;2023-06-22T12:05:20;24.90;57.30
32706;DHT22;19094;50.972;3.538;2023-06-22T12:07:50;24.90;57.30
32706;DHT22;19094;50.972;3.538;2023-06-22T12:10:16;24.90;57.40
32706;DHT22;19094;50.972;3.538;2023-06-22T12:12:42;24.90;57.30
32706;DHT22;19094;50.972;3.538;2023-06-22T12:15:09;24.90;57.50
32706;DHT22;19094;50.972;3.538;2023-06-22T12:17:35;24.90;57.50
32706;DHT22;19094;50.972;3.538;2023-06-22T12:20:01;24.90;57.50
32706;DHT22;19094;50.972;3.538;2023-06-22T12:22:33;24.90;57.60
32706;DHT22;19094;50.972;3.538;2023-06-22T12:25:00;24.90;57.30
32706;DHT22;19094;50.972;3.538;2023-06-22T12:27:25;25.00;57.40
32706;DHT22;19094;50.972;3.538;2023-06-22T12:29:51;25.00;57.90
32706;DHT22;19094;50.972;3.538;2023-06-22T12:32:17;24.90;58.50
32706;DHT22;19094;50.972;3.538;2023-06-22T12:34:44;24.90;58.80
32706;DHT22;19094;50.972;3.538;2023-06-22T12:37:09;25.00;58.20
32706;DHT22;19094;50.972;3.538;2023-06-22T12:39:35;25.00;57.50
32706;DHT22;19094;50.972;3.538;2023-06-22T12:42:01;25.00;57.60
32706;DHT22;19094;50.972;3.538;2023-06-22T12:44:27;25.00;57.40
32706;DHT22;19094;50.972;3.538;2023-06-22T12:46:52;24.90;58.10
32706;DHT22;19094;50.972;3.538;2023-06-22T12:49:18;25.00;58.40
32706;DHT22;19094;50.972;3.538;2023-06-22T12:51:44;25.00;58.00
32706;DHT22;19094;50.972;3.538;2023-06-22T12:54:10;25.10;58.00
32706;DHT22;19094;50.972;3.538;2023-06-22T12:56:37;25.00;58.10
32706;DHT22;19094;50.972;3.538;2023-06-22T12:59:03;25.10;58.20
32706;DHT22;19094;50.972;3.538;2023-06-22T13:01:29;25.10;58.90
32706;DHT22;19094;50.972;3.538;2023-06-22T13:03:56;25.10;58.70
32706;DHT22;19094;50.972;3.538;2023-06-22T13:06:22;25.10;58.60
32706;DHT22;19094;50.972;3.538;2023-06-22T13:08:47;25.10;58.90
32706;DHT22;19094;50.972;3.538;2023-06-22T13:11:13;25.10;58.80
32706;DHT22;19094;50.972;3.538;2023-06-22T13:13:39;25.10;59.10
32706;DHT22;19094;50.972;3.538;2023-06-22T13:16:05;25.10;58.70
32706;DHT22;19094;50.972;3.538;2023-06-22T13:18:31;25.10;58.50
32706;DHT22;19094;50.972;3.538;2023-06-22T13:20:57;25.20;58.40
32706;DHT22;19094;50.972;3.538;2023-06-22T13:23:23;25.20;58.30
32706;DHT22;19094;50.972;3.538;2023-06-22T13:25:49;25.30;58.10
32706;DHT22;19094;50.972;3.538;2023-06-22T13:28:15;25.30;57.90
32706;DHT22;19094;50.972;3.538;2023-06-22T13:30:42;25.30;57.90
32706;DHT22;19094;50.972;3.538;2023-06-22T13:33:08;25.30;57.80
32706;DHT22;19094;50.972;3.538;2023-06-22T13:35:34;25.40;58.00
32706;DHT22;19094;50.972;3.538;2023-06-22T13:38:01;25.40;58.00
32706;DHT22;19094;50.972;3.538;2023-06-22T13:40:26;25.40;57.70
32706;DHT22;19094;50.972;3.538;2023-06-22T13:42:52;25.40;57.80
32706;DHT22;19094;50.972;3.538;2023-06-22T13:45:18;25.50;57.80
32706;DHT22;19094;50.972;3.538;2023-06-22T13:47:45;25.50;57.70
32706;DHT22;19094;50.972;3.538;2023-06-22T13:50:11;25.60;57.80
32706;DHT22;19094;50.972;3.538;2023-06-22T13:52:38;25.60;57.80
32706;DHT22;19094;50.972;3.538;2023-06-22T13:55:05;25.70;58.40
32706;DHT22;19094;50.972;3.538;2023-06-22T13:57:32;25.80;58.70
32706;DHT22;19094;50.972;3.538;2023-06-22T13:59:59;25.80;58.30
32706;DHT22;19094;50.972;3.538;2023-06-22T14:02:26;25.80;58.30
32706;DHT22;19094;50.972;3.538;2023-06-22T14:04:51;25.90;58.00
32706;DHT22;19094;50.972;3.538;2023-06-22T14:07:17;26.00;59.50
32706;DHT22;19094;50.972;3.538;2023-06-22T14:09:44;26.00;57.80
32706;DHT22;19094;50.972;3.538;2023-06-22T14:12:11;26.10;58.00
32706;DHT22;19094;50.972;3.538;2023-06-22T14:14:36;26.10;58.10
32706;DHT22;19094;50.972;3.538;2023-06-22T14:17:03;26.10;58.00
32706;DHT22;19094;50.972;3.538;2023-06-22T14:19:29;26.10;58.20
32706;DHT22;19094;50.972;3.538;2023-06-22T14:21:55;26.10;57.90
32706;DHT22;19094;50.972;3.538;2023-06-22T14:24:22;26.10;57.60
32706;DHT22;19094;50.972;3.538;2023-06-22T14:26:48;26.10;58.40
32706;DHT22;19094;50.972;3.538;2023-06-22T14:29:14;26.20;58.00
32706;DHT22;19094;50.972;3.538;2023-06-22T14:31:40;26.20;57.40
32706;DHT22;19094;50.972;3.538;2023-06-22T14:34:06;26.30;57.20
32706;DHT22;19094;50.972;3.538;2023-06-22T14:36:31;26.30;57.10
32706;DHT22;19094;50.972;3.538;2023-06-22T14:38:57;26.30;56.80
32706;DHT22;19094;50.972;3.538;2023-06-22T14:41:23;26.40;56.70
32706;DHT22;19094;50.972;3.538;2023-06-22T14:43:52;26.40;56.60
32706;DHT22;19094;50.972;3.538;2023-06-22T14:46:18;26.40;57.30
32706;DHT22;19094;50.972;3.538;2023-06-22T14:48:44;26.40;56.50
32706;DHT22;19094;50.972;3.538;2023-06-22T14:51:11;26.40;56.60
32706;DHT22;19094;50.972;3.538;2023-06-22T14:53:37;26.40;57.20
32706;DHT22;19094;50.972;3.538;2023-06-22T14:56:03;26.40;56.50
32706;DHT22;19094;50.972;3.538;2023-06-22T14:58:30;26.40;56.50
32706;DHT22;19094;50.972;3.538;2023-06-22T15:00:59;26.30;56.50
32706;DHT22;19094;50.972;3.538;2023-06-22T15:03:24;26.30;56.40
32706;DHT22;19094;50.972;3.538;2023-06-22T15:05:53;26.30;56.50
32706;DHT22;19094;50.972;3.538;2023-06-22T15:08:19;26.30;56.60
32706;DHT22;19094;50.972;3.538;2023-06-22T15:10:45;26.30;56.60
32706;DHT22;19094;50.972;3.538;2023-06-22T15:13:10;26.20;56.60
32706;DHT22;19094;50.972;3.538;2023-06-22T15:15:36;26.20;56.60
32706;DHT22;19094;50.972;3.538;2023-06-22T15:18:02;26.20;56.80
32706;DHT22;19094;50.972;3.538;2023-06-22T15:20:28;26.20;56.80
32706;DHT22;19094;50.972;3.538;2023-06-22T15:22:53;26.10;56.90
32706;DHT22;19094;50.972;3.538;2023-06-22T15:25:20;26.10;57.00
32706;DHT22;19094;50.972;3.538;2023-06-22T15:27:45;26.10;56.80
32706;DHT22;19094;50.972;3.538;2023-06-22T15:30:11;26.00;56.90